Time;durP1;ratioP1;P1;durP2;ratioP2;P2;SDS_P1;SDS_P2;PMS_P1;PMS_P2;Temp;Humidity;BMP_temperature;BMP_pressure;BME280_temperature;BME280_humidity;BME280_pressure;Samples;Min_cycle;Max_cycle;Signal;HPM_P1;HPM_P2
2020/12/29 00:01:09;;;;;;;2.40;2.17;;;19.40;43.60;;;;;;5207282;28;20407;-76
2020/12/29 00:03:40;;;;;;;2.20;2.00;;;19.40;43.60;;;;;;5208689;28;20051;-76
2020/12/29 00:06:10;;;;;;;2.17;1.98;;;19.40;43.70;;;;;;5208104;28;20056;-76
2020/12/29 00:08:41;;;;;;;2.33;2.13;;;19.40;43.60;;;;;;5208447;28;20411;-76
2020/12/29 00:11:11;;;;;;;1.92;1.70;;;19.40;43.60;;;;;;5207616;28;20036;-76
2020/12/29 00:13:42;;;;;;;2.08;1.88;;;19.40;43.60;;;;;;5225154;28;20104;-76
2020/12/29 00:16:12;;;;;;;2.35;1.90;;;19.40;43.60;;;;;;5223488;28;20037;-76
2020/12/29 00:18:43;;;;;;;2.25;1.85;;;19.40;43.60;;;;;;5224408;28;20040;-76
2020/12/29 00:21:18;;;;;;;2.40;1.88;;;19.40;43.60;;;;;;5224213;28;20028;-77
2020/12/29 00:23:48;;;;;;;1.85;1.73;;;19.40;43.60;;;;;;5224733;28;20780;-76
2020/12/29 00:26:19;;;;;;;2.10;1.90;;;19.40;43.60;;;;;;5207611;28;20065;-76
2020/12/29 00:28:49;;;;;;;2.13;1.83;;;19.40;43.60;;;;;;5208067;28;20025;-76
2020/12/29 00:31:20;;;;;;;1.83;1.63;;;19.40;43.60;;;;;;5206486;28;20036;-76
2020/12/29 00:33:56;;;;;;;2.03;1.83;;;19.40;43.60;;;;;;5208119;28;20021;-76
2020/12/29 00:36:26;;;;;;;2.38;1.90;;;19.30;43.60;;;;;;5207685;28;20017;-76
2020/12/29 00:38:57;;;;;;;2.20;1.63;;;19.30;43.70;;;;;;5224507;28;20033;-76
2020/12/29 00:41:28;;;;;;;2.25;1.90;;;19.40;43.70;;;;;;5207204;28;20415;-76
2020/12/29 00:43:58;;;;;;;1.90;1.70;;;19.40;43.70;;;;;;5224440;28;20546;-76
2020/12/29 00:46:29;;;;;;;2.00;1.80;;;19.30;43.70;;;;;;5223379;28;20033;-76
2020/12/29 00:48:59;;;;;;;2.20;1.80;;;19.30;43.70;;;;;;5224300;28;20411;-76
2020/12/29 00:51:30;;;;;;;1.67;1.55;;;19.30;43.70;;;;;;5207001;28;20033;-75
2020/12/29 00:54:01;;;;;;;2.05;1.73;;;19.30;43.70;;;;;;5207547;28;20075;-76
2020/12/29 00:56:31;;;;;;;1.98;1.60;;;19.30;43.70;;;;;;5223940;28;20055;-76
2020/12/29 00:59:02;;;;;;;1.80;1.60;;;19.30;43.70;;;;;;5224028;28;20055;-76
2020/12/29 01:01:32;;;;;;;1.92;1.73;;;19.30;43.70;;;;;;5213874;28;20025;-76
2020/12/29 01:04:03;;;;;;;2.00;1.70;;;19.30;43.70;;;;;;5224311;28;20372;-76
2020/12/29 01:06:33;;;;;;;1.90;1.70;;;19.30;43.70;;;;;;5223553;28;20112;-76
2020/12/29 01:09:04;;;;;;;1.70;1.35;;;19.30;43.60;;;;;;5223978;28;20437;-76
2020/12/29 01:11:34;;;;;;;2.00;1.65;;;19.30;43.70;;;;;;5222980;28;20079;-76
2020/12/29 01:14:05;;;;;;;1.98;1.70;;;19.40;43.70;;;;;;5207206;28;20024;-76
2020/12/29 01:16:36;;;;;;;1.70;1.60;;;19.30;43.70;;;;;;5210375;28;20507;-76
2020/12/29 01:19:07;;;;;;;2.28;1.70;;;19.30;43.60;;;;;;5203338;28;20025;-76
2020/12/29 01:21:37;;;;;;;2.00;1.70;;;19.40;43.70;;;;;;5202470;28;20396;-76
2020/12/29 01:24:08;;;;;;;1.58;1.48;;;19.40;43.60;;;;;;5186642;28;20033;-77
2020/12/29 01:26:38;;;;;;;1.75;1.50;;;19.40;43.70;;;;;;5186195;28;20025;-76
2020/12/29 01:29:09;;;;;;;1.73;1.58;;;19.30;43.60;;;;;;5202839;28;20022;-76
2020/12/29 01:31:39;;;;;;;1.55;1.45;;;19.30;43.60;;;;;;5198474;28;20124;-77
2020/12/29 01:34:10;;;;;;;2.20;1.50;;;19.30;43.70;;;;;;5223775;28;20540;-77
2020/12/29 01:36:40;;;;;;;1.50;1.40;;;19.30;43.70;;;;;;5218769;28;20030;-76
2020/12/29 01:39:11;;;;;;;1.83;1.65;;;19.30;43.70;;;;;;5186595;28;20546;-76
2020/12/29 01:41:41;;;;;;;1.80;1.65;;;19.30;43.70;;;;;;5185901;28;20057;-76
2020/12/29 01:44:18;;;;;;;1.42;1.33;;;19.30;43.70;;;;;;5203182;28;20775;-76
2020/12/29 01:46:49;;;;;;;1.90;1.40;;;19.30;43.70;;;;;;5210674;28;20033;-76
2020/12/29 01:49:20;;;;;;;1.60;1.50;;;19.30;43.80;;;;;;5202802;28;20472;-76
2020/12/29 01:51:50;;;;;;;1.50;1.40;;;19.30;43.70;;;;;;5191569;28;20122;-76
2020/12/29 01:54:21;;;;;;;1.80;1.30;;;19.30;43.70;;;;;;5206807;28;20041;-76
2020/12/29 01:56:51;;;;;;;1.50;1.30;;;19.30;43.70;;;;;;5206297;28;20475;-76
2020/12/29 01:59:22;;;;;;;1.52;1.40;;;19.30;43.70;;;;;;5223490;28;20040;-76
2020/12/29 02:01:52;;;;;;;1.50;1.40;;;19.30;43.70;;;;;;5212950;28;20029;-76
2020/12/29 02:04:23;;;;;;;1.58;1.48;;;19.30;43.70;;;;;;5223195;28;20029;-77
2020/12/29 02:06:53;;;;;;;1.38;1.27;;;19.30;43.70;;;;;;5206431;28;20032;-76
2020/12/29 02:09:24;;;;;;;1.50;1.40;;;19.30;43.70;;;;;;5223443;28;20113;-76
2020/12/29 02:11:54;;;;;;;1.50;1.40;;;19.30;43.60;;;;;;5216247;28;20488;-76
2020/12/29 02:14:25;;;;;;;1.48;1.38;;;19.30;43.70;;;;;;5202407;28;20045;-76
2020/12/29 02:16:55;;;;;;;1.83;1.65;;;19.30;43.70;;;;;;5210764;28;20554;-76
2020/12/29 02:19:26;;;;;;;1.50;1.40;;;19.30;43.60;;;;;;5186059;28;20443;-76
2020/12/29 02:21:56;;;;;;;1.58;1.20;;;19.30;43.60;;;;;;5208595;28;20029;-76
2020/12/29 02:24:27;;;;;;;1.23;1.13;;;19.30;43.60;;;;;;5223138;28;20021;-76
2020/12/29 02:26:57;;;;;;;1.42;1.33;;;19.30;43.60;;;;;;5215949;28;20026;-76
2020/12/29 02:29:28;;;;;;;1.60;1.50;;;19.30;43.50;;;;;;5202693;28;20029;-76
2020/12/29 02:31:59;;;;;;;1.90;1.58;;;19.40;43.60;;;;;;5201214;28;20119;-77
2020/12/29 02:34:29;;;;;;;1.50;1.40;;;19.30;43.50;;;;;;5202408;28;20551;-77
2020/12/29 02:37:00;;;;;;;1.55;1.45;;;19.30;43.50;;;;;;5185538;28;20449;-76
2020/12/29 02:39:31;;;;;;;1.75;1.60;;;19.30;43.50;;;;;;5185917;28;20029;-76
2020/12/29 02:42:02;;;;;;;1.60;1.50;;;19.30;44.10;;;;;;5212697;28;20060;-76
2020/12/29 02:44:32;;;;;;;1.60;1.50;;;19.30;43.50;;;;;;5210037;28;20053;-75
2020/12/29 02:47:03;;;;;;;1.77;1.60;;;19.30;43.50;;;;;;5216698;28;20032;-76
2020/12/29 02:49:34;;;;;;;2.03;1.75;;;19.30;43.50;;;;;;5226490;28;20124;-76
2020/12/29 02:52:05;;;;;;;2.03;1.50;;;19.30;43.50;;;;;;5201710;28;20038;-76
2020/12/29 02:54:35;;;;;;;2.13;1.75;;;19.30;43.50;;;;;;5205903;28;20537;-76
2020/12/29 02:57:06;;;;;;;2.65;2.10;;;19.30;43.50;;;;;;5196825;28;20033;-76
2020/12/29 02:59:36;;;;;;;1.80;1.52;;;19.30;43.50;;;;;;5226551;28;20029;-76
2020/12/29 03:02:07;;;;;;;1.55;1.45;;;19.30;43.50;;;;;;5208496;28;20032;-76
2020/12/29 03:04:37;;;;;;;2.00;1.70;;;19.30;43.50;;;;;;5209656;28;20032;-76
2020/12/29 03:07:09;;;;;;;1.63;1.52;;;19.30;43.50;;;;;;5209089;28;20033;-76
2020/12/29 03:09:39;;;;;;;1.92;1.60;;;19.30;43.50;;;;;;5226597;28;20105;-76
2020/12/29 03:12:11;;;;;;;1.50;1.40;;;19.30;43.50;;;;;;5208660;28;20492;-76
2020/12/29 03:14:41;;;;;;;2.63;1.75;;;19.30;43.50;;;;;;5209485;28;20028;-76
2020/12/29 03:17:12;;;;;;;1.95;1.60;;;19.30;43.50;;;;;;5225025;28;20036;-76
2020/12/29 03:19:42;;;;;;;1.90;1.63;;;19.30;43.60;;;;;;5226080;28;20040;-76
2020/12/29 03:22:13;;;;;;;1.50;1.40;;;19.30;43.50;;;;;;5225270;28;20424;-76
2020/12/29 03:24:43;;;;;;;1.60;1.50;;;19.30;43.50;;;;;;5226196;28;20490;-76
2020/12/29 03:27:14;;;;;;;2.10;1.90;;;19.30;43.60;;;;;;5208394;28;20049;-76
2020/12/29 03:29:44;;;;;;;1.60;1.50;;;19.30;43.50;;;;;;5209392;28;20513;-77
2020/12/29 03:32:15;;;;;;;1.92;1.60;;;19.30;43.50;;;;;;5207919;28;20029;-76
2020/12/29 03:34:45;;;;;;;2.08;1.80;;;19.30;43.50;;;;;;5225927;28;20021;-75
2020/12/29 03:37:16;;;;;;;1.70;1.48;;;19.30;43.50;;;;;;5208704;28;20033;-75
2020/12/29 03:39:47;;;;;;;1.40;1.30;;;19.30;43.40;;;;;;5225762;28;20017;-76
2020/12/29 03:42:17;;;;;;;1.48;1.38;;;19.30;43.50;;;;;;5208117;28;20025;-76
2020/12/29 03:44:48;;;;;;;1.95;1.75;;;19.30;43.40;;;;;;5209042;28;20561;-77
2020/12/29 03:47:18;;;;;;;2.10;1.55;;;19.30;44.00;;;;;;5224474;28;20029;-76
2020/12/29 03:49:49;;;;;;;1.75;1.60;;;19.30;43.40;;;;;;5208821;28;20033;-76
2020/12/29 03:52:19;;;;;;;1.88;1.40;;;19.30;43.40;;;;;;5224408;28;20029;-76
2020/12/29 03:54:50;;;;;;;2.00;1.40;;;19.30;43.40;;;;;;5225404;28;20037;-76
2020/12/29 03:57:20;;;;;;;1.50;1.40;;;19.30;43.40;;;;;;5214957;28;20075;-76
2020/12/29 03:59:51;;;;;;;1.83;1.50;;;19.30;43.40;;;;;;5204731;28;20500;-75
2020/12/29 04:02:21;;;;;;;1.40;1.30;;;19.30;43.40;;;;;;5205395;28;20044;-76
2020/12/29 04:04:52;;;;;;;1.60;1.40;;;19.30;43.40;;;;;;5225225;28;20031;-76
2020/12/29 04:07:23;;;;;;;1.30;1.20;;;19.30;44.10;;;;;;5224956;28;20056;-75
2020/12/29 04:09:53;;;;;;;2.15;1.58;;;19.30;43.50;;;;;;5208571;28;20029;-76
2020/12/29 04:12:24;;;;;;;1.60;1.40;;;19.30;43.40;;;;;;5197302;28;20044;-76
2020/12/29 04:14:54;;;;;;;1.60;1.40;;;19.30;43.50;;;;;;5204311;28;20064;-76
2020/12/29 04:17:25;;;;;;;1.20;1.10;;;19.30;43.50;;;;;;5205922;28;20029;-76
2020/12/29 04:19:55;;;;;;;1.40;1.30;;;19.30;43.50;;;;;;5208354;28;20124;-76
2020/12/29 04:22:30;;;;;;;1.30;1.20;;;19.30;43.60;;;;;;5207372;28;20090;-76
2020/12/29 04:25:00;;;;;;;1.50;1.40;;;19.30;43.50;;;;;;5224683;28;20020;-76
2020/12/29 04:27:31;;;;;;;1.40;1.30;;;19.30;43.50;;;;;;5224243;28;20029;-76
2020/12/29 04:30:03;;;;;;;1.40;1.30;;;19.30;43.50;;;;;;5208286;28;20028;-76
2020/12/29 04:32:33;;;;;;;1.42;1.33;;;19.20;43.50;;;;;;5197503;28;20554;-76
2020/12/29 04:35:05;;;;;;;1.38;1.20;;;19.30;43.50;;;;;;5224632;28;20033;-75
2020/12/29 04:37:35;;;;;;;1.67;1.30;;;19.30;43.60;;;;;;5212295;28;20127;-76
2020/12/29 04:40:06;;;;;;;1.30;1.20;;;19.30;43.50;;;;;;5187417;28;20029;-75
2020/12/29 04:42:36;;;;;;;1.20;1.10;;;19.30;43.50;;;;;;5198364;28;20059;-75
2020/12/29 04:45:07;;;;;;;1.50;1.40;;;19.30;43.50;;;;;;5207202;28;20017;-75
2020/12/29 04:47:37;;;;;;;1.20;1.10;;;19.30;43.50;;;;;;5207121;28;20093;-76
2020/12/29 04:50:08;;;;;;;1.35;1.25;;;19.30;43.40;;;;;;5224608;28;20025;-76
2020/12/29 04:52:38;;;;;;;1.90;1.38;;;19.30;43.50;;;;;;5211026;28;20110;-77
2020/12/29 04:55:09;;;;;;;1.48;1.38;;;19.30;43.40;;;;;;5187129;28;20514;-76
2020/12/29 04:57:44;;;;;;;1.40;1.30;;;19.30;43.40;;;;;;5199016;28;20029;-76
2020/12/29 05:00:14;;;;;;;1.20;1.10;;;19.30;43.40;;;;;;5223710;28;20107;-76
2020/12/29 05:02:48;;;;;;;1.60;1.30;;;19.30;43.40;;;;;;5209493;28;20071;-76
2020/12/29 05:05:19;;;;;;;1.48;1.30;;;19.30;43.50;;;;;;5186853;28;20022;-76
2020/12/29 05:07:49;;;;;;;1.40;1.30;;;19.30;43.50;;;;;;5216959;28;20033;-76
2020/12/29 05:10:20;;;;;;;1.42;1.33;;;19.30;43.50;;;;;;5224052;28;20083;-76
2020/12/29 05:12:50;;;;;;;1.30;1.20;;;19.30;43.50;;;;;;5223198;28;20116;-76
2020/12/29 05:15:21;;;;;;;1.73;1.40;;;19.20;43.50;;;;;;5206586;28;20548;-76
2020/12/29 05:17:52;;;;;;;2.25;1.40;;;19.20;43.50;;;;;;5206821;28;20041;-76
2020/12/29 05:20:33;;;;;;;1.10;1.00;;;19.20;43.50;;;;;;5223903;28;20021;-77
2020/12/29 05:23:03;;;;;;;1.08;1.00;;;19.30;43.50;;;;;;5223265;28;20048;-76
2020/12/29 05:25:34;;;;;;;1.55;1.20;;;19.20;43.50;;;;;;5207258;28;20021;-76
2020/12/29 05:28:06;;;;;;;1.20;1.10;;;19.30;43.50;;;;;;5206076;28;20452;-76
2020/12/29 05:30:38;;;;;;;1.27;1.10;;;19.30;43.50;;;;;;5223189;28;20029;-76
2020/12/29 05:33:12;;;;;;;1.17;1.00;;;19.20;43.40;;;;;;5206665;28;20052;-76
2020/12/29 05:35:42;;;;;;;1.30;1.20;;;19.30;43.40;;;;;;5186610;28;20484;-76
2020/12/29 05:38:13;;;;;;;1.38;1.27;;;19.30;43.40;;;;;;5203035;28;20029;-76
2020/12/29 05:40:45;;;;;;;1.30;1.20;;;19.30;43.40;;;;;;5223782;28;20025;-76
2020/12/29 05:43:30;;;;;;;1.45;1.27;;;19.30;43.40;;;;;;5205370;28;20029;-76
2020/12/29 05:46:03;;;;;;;1.42;1.33;;;19.30;43.40;;;;;;5210363;28;20039;-76
2020/12/29 05:48:35;;;;;;;1.33;1.20;;;19.30;43.70;;;;;;5222936;28;20040;-76
2020/12/29 05:51:15;;;;;;;1.52;1.10;;;19.30;43.40;;;;;;5223352;28;20037;-75
2020/12/29 05:53:45;;;;;;;1.30;1.15;;;19.20;43.40;;;;;;5186491;28;20045;-76
2020/12/29 05:56:16;;;;;;;1.40;1.30;;;19.30;43.40;;;;;;5203229;28;20083;-75
2020/12/29 05:58:46;;;;;;;1.25;1.10;;;19.30;43.40;;;;;;5223400;28;20029;-76
2020/12/29 06:01:17;;;;;;;1.27;1.17;;;19.30;43.40;;;;;;5212091;28;20439;-76
2020/12/29 06:03:47;;;;;;;1.30;1.15;;;19.30;43.40;;;;;;5203965;28;20040;-76
2020/12/29 06:06:18;;;;;;;1.27;1.17;;;19.30;43.40;;;;;;5185647;28;20026;-76
2020/12/29 06:08:50;;;;;;;1.13;1.02;;;19.30;43.40;;;;;;5202763;28;20029;-76
2020/12/29 06:11:22;;;;;;;1.30;1.20;;;19.30;43.40;;;;;;5202075;28;20148;-76
2020/12/29 06:13:52;;;;;;;1.30;1.20;;;19.30;43.40;;;;;;5203157;28;20021;-76
2020/12/29 06:16:22;;;;;;;1.20;1.10;;;19.30;43.40;;;;;;5199829;28;20035;-76
2020/12/29 06:18:53;;;;;;;1.30;1.17;;;19.20;43.40;;;;;;5210242;28;20027;-76
2020/12/29 06:21:24;;;;;;;1.23;1.10;;;19.30;43.40;;;;;;5209971;28;20033;-76
2020/12/29 06:23:54;;;;;;;1.20;1.10;;;19.20;43.40;;;;;;5227210;28;20043;-76
2020/12/29 06:26:32;;;;;;;1.42;1.17;;;19.20;43.40;;;;;;5209613;28;20035;-76
2020/12/29 06:29:02;;;;;;;1.02;1.00;;;19.30;43.40;;;;;;5227170;28;20053;-76
2020/12/29 06:31:33;;;;;;;1.40;1.30;;;19.30;43.50;;;;;;5209052;28;20063;-75
2020/12/29 06:34:03;;;;;;;1.20;1.10;;;19.30;43.50;;;;;;5226961;28;20082;-76
2020/12/29 06:36:34;;;;;;;1.40;1.30;;;19.20;43.40;;;;;;5226457;28;20326;-75
2020/12/29 06:39:07;;;;;;;8.95;1.27;;;19.30;43.50;;;;;;5210007;28;20060;-76
2020/12/29 06:41:37;;;;;;;1.30;1.20;;;19.20;43.40;;;;;;5209669;28;20029;-76
2020/12/29 06:44:09;;;;;;;1.20;1.10;;;19.20;43.40;;;;;;5210143;28;20476;-76
2020/12/29 06:46:40;;;;;;;1.40;1.30;;;19.30;43.50;;;;;;5208710;28;20029;-76
2020/12/29 06:49:20;;;;;;;1.80;1.35;;;19.20;43.40;;;;;;5209764;28;20059;-77
2020/12/29 06:52:17;;;;;;;1.35;1.15;;;19.20;43.40;;;;;;5209267;28;20025;-76
2020/12/29 06:54:51;;;;;;;1.55;1.30;;;19.20;43.40;;;;;;5226468;28;20086;-76
2020/12/29 06:57:34;;;;;;;1.10;1.00;;;19.30;43.50;;;;;;5199105;28;20408;-76
2020/12/29 07:00:10;;;;;;;1.23;1.13;;;19.20;43.40;;;;;;5205651;28;20037;-76
2020/12/29 07:02:41;;;;;;;1.30;1.20;;;19.20;43.40;;;;;;5225690;28;20025;-76
2020/12/29 07:05:22;;;;;;;1.20;1.10;;;19.20;43.50;;;;;;5226362;28;20360;-76
2020/12/29 07:08:08;;;;;;;1.17;1.05;;;19.20;43.40;;;;;;5226125;28;20106;-76
2020/12/29 07:10:45;;;;;;;1.10;1.00;;;19.20;43.40;;;;;;5209572;28;20025;-76
2020/12/29 07:13:16;;;;;;;1.10;1.00;;;19.20;43.40;;;;;;5209515;28;20025;-77
2020/12/29 07:15:51;;;;;;;1.20;1.10;;;19.20;43.40;;;;;;5208936;28;20047;-76
2020/12/29 07:18:23;;;;;;;1.17;1.00;;;19.20;43.40;;;;;;5207145;28;20033;-76
2020/12/29 07:20:54;;;;;;;1.20;1.10;;;19.20;43.40;;;;;;5188739;28;20025;-75
2020/12/29 07:23:25;;;;;;;1.52;1.20;;;19.20;43.40;;;;;;5206791;28;20491;-76
2020/12/29 07:25:59;;;;;;;1.20;1.10;;;19.20;43.40;;;;;;5208683;28;20082;-76
2020/12/29 07:28:30;;;;;;;1.27;1.17;;;19.20;43.50;;;;;;5208567;28;20025;-76
2020/12/29 07:31:00;;;;;;;1.17;1.08;;;19.20;43.40;;;;;;5224965;28;20036;-76
2020/12/29 07:33:31;;;;;;;1.63;1.40;;;19.20;43.50;;;;;;5189009;28;20029;-77
2020/12/29 07:36:01;;;;;;;1.20;1.10;;;19.30;43.40;;;;;;5188375;28;20037;-76
2020/12/29 07:38:32;;;;;;;1.27;1.17;;;19.30;43.40;;;;;;5224212;28;20071;-76
2020/12/29 07:41:02;;;;;;;1.20;1.10;;;19.30;43.40;;;;;;5225515;28;20032;-75
2020/12/29 07:43:33;;;;;;;1.60;1.30;;;19.20;43.50;;;;;;5208351;28;20044;-76
2020/12/29 07:46:03;;;;;;;1.10;1.00;;;19.20;43.40;;;;;;5208102;28;20503;-76
2020/12/29 07:48:34;;;;;;;1.10;1.00;;;19.20;43.40;;;;;;5188474;28;20037;-76
2020/12/29 07:51:05;;;;;;;1.30;1.20;;;19.20;43.40;;;;;;5204902;28;20435;-75
2020/12/29 07:53:35;;;;;;;1.38;1.20;;;19.30;43.50;;;;;;5207491;28;20175;-76
2020/12/29 07:56:06;;;;;;;1.13;1.02;;;19.30;43.50;;;;;;5208685;28;20114;-76
2020/12/29 07:58:36;;;;;;;1.48;1.23;;;19.20;43.50;;;;;;5208155;28;20029;-76
2020/12/29 08:01:07;;;;;;;1.00;0.90;;;19.30;43.50;;;;;;5207845;28;20035;-76
2020/12/29 08:03:38;;;;;;;1.27;1.17;;;19.20;43.50;;;;;;5187771;28;20026;-76
2020/12/29 08:06:15;;;;;;;1.20;1.08;;;19.20;43.50;;;;;;5187654;28;20032;-76
2020/12/29 08:08:45;;;;;;;1.27;1.17;;;19.20;43.50;;;;;;5225176;28;20017;-76
2020/12/29 08:11:21;;;;;;;1.27;1.17;;;19.20;43.50;;;;;;5224391;28;20040;-76
2020/12/29 08:13:51;;;;;;;1.23;1.10;;;19.20;43.50;;;;;;5225243;28;20017;-76
2020/12/29 08:16:22;;;;;;;1.23;1.13;;;19.30;43.50;;;;;;5213077;28;20036;-76
2020/12/29 08:19:00;;;;;;;1.08;1.00;;;19.30;43.50;;;;;;5203964;28;20022;-76
2020/12/29 08:21:30;;;;;;;1.13;1.08;;;19.20;43.50;;;;;;5187181;28;20113;-76
2020/12/29 08:24:01;;;;;;;1.42;1.13;;;19.20;44.10;;;;;;5187674;28;20021;-76
2020/12/29 08:26:32;;;;;;;1.20;1.10;;;19.20;43.50;;;;;;5203746;28;20025;-76
2020/12/29 08:29:03;;;;;;;1.33;1.02;;;19.20;43.50;;;;;;5204067;28;20502;-76
2020/12/29 08:31:34;;;;;;;1.42;1.30;;;19.20;43.50;;;;;;5202701;28;20040;-76
2020/12/29 08:34:04;;;;;;;1.25;1.10;;;19.20;43.60;;;;;;5187644;28;20033;-76
2020/12/29 08:36:35;;;;;;;1.15;1.00;;;19.20;43.50;;;;;;5203660;28;20396;-76
2020/12/29 08:39:48;;;;;;;1.20;1.00;;;19.20;43.50;;;;;;5203026;28;20404;-75
2020/12/29 08:42:18;;;;;;;1.33;1.20;;;19.20;43.50;;;;;;5177587;28;20034;-76
2020/12/29 08:44:49;;;;;;;1.45;1.25;;;19.20;43.50;;;;;;5162102;28;20073;-77
2020/12/29 08:47:19;;;;;;;1.40;1.30;;;19.20;43.60;;;;;;5209876;28;20051;-76
2020/12/29 08:49:50;;;;;;;1.30;1.20;;;19.20;43.50;;;;;;5224355;28;20488;-76
2020/12/29 08:52:30;;;;;;;1.60;1.30;;;19.20;43.50;;;;;;5206930;28;20040;-76
2020/12/29 08:55:01;;;;;;;1.20;1.10;;;19.20;43.50;;;;;;5224262;28;20525;-77
2020/12/29 08:57:31;;;;;;;1.50;1.40;;;19.30;43.60;;;;;;5206992;28;20056;-76
2020/12/29 09:00:02;;;;;;;1.20;1.10;;;19.20;43.60;;;;;;5207601;28;20055;-76
2020/12/29 09:02:33;;;;;;;1.17;1.08;;;19.20;43.60;;;;;;5213812;28;20033;-76
2020/12/29 09:05:03;;;;;;;1.35;1.25;;;19.20;43.60;;;;;;5207452;28;20128;-76
2020/12/29 09:07:40;;;;;;;1.50;1.20;;;19.20;43.60;;;;;;5223767;28;20033;-76
2020/12/29 09:10:12;;;;;;;1.35;1.23;;;19.20;43.60;;;;;;5207644;28;20047;-76
2020/12/29 09:12:42;;;;;;;2.28;1.20;;;19.20;44.30;;;;;;5210626;28;20484;-76
2020/12/29 09:15:14;;;;;;;1.40;1.30;;;19.20;43.60;;;;;;5204263;28;20040;-77
2020/12/29 09:17:46;;;;;;;1.30;1.20;;;19.20;43.70;;;;;;5223459;28;20060;-75
2020/12/29 09:20:23;;;;;;;1.42;1.33;;;19.20;43.70;;;;;;5207750;28;20028;-75
2020/12/29 09:23:12;;;;;;;1.35;1.25;;;19.20;43.70;;;;;;5223139;28;20031;-77
2020/12/29 09:25:43;;;;;;;1.40;1.30;;;19.20;43.60;;;;;;5223682;28;20109;-76
2020/12/29 09:28:20;;;;;;;1.40;1.30;;;19.20;43.60;;;;;;5224684;28;20561;-76
2020/12/29 09:31:02;;;;;;;1.70;1.40;;;19.20;43.60;;;;;;5206657;28;20032;-76
2020/12/29 09:33:33;;;;;;;1.50;1.40;;;19.20;43.60;;;;;;5203467;28;20025;-77
2020/12/29 09:36:04;;;;;;;2.30;1.30;;;19.20;43.70;;;;;;5186312;28;20112;-76
2020/12/29 09:38:34;;;;;;;1.50;1.40;;;19.20;43.60;;;;;;5222500;28;20124;-76
2020/12/29 09:41:05;;;;;;;1.50;1.40;;;19.20;43.60;;;;;;5223499;28;20036;-75
2020/12/29 09:43:35;;;;;;;1.30;1.17;;;19.20;43.60;;;;;;5203056;28;20033;-76
2020/12/29 09:46:06;;;;;;;1.67;1.58;;;19.20;43.60;;;;;;5202264;28;20033;-76
2020/12/29 09:48:36;;;;;;;1.50;1.40;;;19.20;43.70;;;;;;5222687;28;20040;-75
2020/12/29 09:51:09;;;;;;;1.50;1.40;;;19.20;43.60;;;;;;5211038;28;20028;-75
2020/12/29 09:53:39;;;;;;;1.42;1.30;;;19.30;43.70;;;;;;5190453;28;20038;-76
2020/12/29 09:56:10;;;;;;;1.77;1.50;;;19.20;43.60;;;;;;5190255;28;20132;-76
2020/12/29 09:58:41;;;;;;;2.58;1.40;;;19.20;43.60;;;;;;5227410;28;20024;-76
2020/12/29 10:01:11;;;;;;;1.58;1.48;;;19.20;43.70;;;;;;5226280;28;20029;-76
2020/12/29 10:03:42;;;;;;;1.40;1.30;;;19.20;43.70;;;;;;5227618;28;20032;-76
2020/12/29 10:06:14;;;;;;;2.92;1.50;;;19.20;43.70;;;;;;5227256;28;20395;-77
2020/12/29 10:08:45;;;;;;;1.30;1.20;;;19.20;43.70;;;;;;5210571;28;20040;-76
2020/12/29 10:11:15;;;;;;;1.35;1.25;;;19.20;43.70;;;;;;5209824;28;20487;-76
2020/12/29 10:13:46;;;;;;;1.50;1.40;;;19.20;43.80;;;;;;5227187;28;20021;-77
2020/12/29 10:16:16;;;;;;;1.55;1.25;;;19.20;43.80;;;;;;5209174;28;20040;-76
2020/12/29 10:18:47;;;;;;;2.00;1.30;;;19.20;43.70;;;;;;5210473;28;20376;-76
2020/12/29 10:21:20;;;;;;;1.30;1.15;;;19.20;43.70;;;;;;5226502;28;20068;-76
2020/12/29 10:23:50;;;;;;;1.15;1.05;;;19.20;43.80;;;;;;5226983;28;20020;-76
2020/12/29 10:26:21;;;;;;;2.10;1.45;;;19.20;43.70;;;;;;5226597;28;20383;-76
2020/12/29 10:28:51;;;;;;;1.77;1.10;;;19.20;43.70;;;;;;5226719;28;20029;-76
2020/12/29 10:31:22;;;;;;;1.27;1.17;;;19.20;43.70;;;;;;5199863;28;20525;-76
2020/12/29 10:33:52;;;;;;;1.50;1.27;;;19.20;43.70;;;;;;5226801;28;20029;-77
2020/12/29 10:36:23;;;;;;;1.48;1.23;;;19.20;43.70;;;;;;5209288;28;20399;-76
2020/12/29 10:38:53;;;;;;;1.20;1.10;;;19.20;43.70;;;;;;5226448;28;20027;-76
2020/12/29 10:41:28;;;;;;;1.23;1.13;;;19.20;43.70;;;;;;5226101;28;20021;-76
2020/12/29 10:43:59;;;;;;;1.42;1.30;;;19.20;43.70;;;;;;5226936;28;20062;-77
2020/12/29 10:46:29;;;;;;;1.10;1.00;;;19.20;43.70;;;;;;5225205;28;20076;-76
2020/12/29 10:49:00;;;;;;;1.33;1.20;;;19.20;43.70;;;;;;5226366;28;20180;-76
2020/12/29 10:51:30;;;;;;;1.58;1.30;;;19.20;43.70;;;;;;5225745;28;20407;-76
2020/12/29 10:54:01;;;;;;;2.17;1.25;;;19.20;43.70;;;;;;5225958;28;20379;-76
2020/12/29 10:56:31;;;;;;;1.20;1.10;;;19.20;43.70;;;;;;5226164;28;20490;-76
2020/12/29 10:59:02;;;;;;;1.30;1.20;;;19.20;43.70;;;;;;5225958;28;20033;-76
2020/12/29 11:01:33;;;;;;;1.20;1.10;;;19.20;43.70;;;;;;5211498;28;20034;-76
2020/12/29 11:04:04;;;;;;;1.30;1.20;;;19.20;43.70;;;;;;5205614;28;20028;-76
2020/12/29 11:06:34;;;;;;;1.30;1.10;;;19.20;43.70;;;;;;5189087;28;20407;-76
2020/12/29 11:09:05;;;;;;;1.13;1.02;;;19.20;43.70;;;;;;5205715;28;20025;-76
2020/12/29 11:11:35;;;;;;;1.30;1.20;;;19.20;43.70;;;;;;5188437;28;20030;-76
2020/12/29 11:14:05;;;;;;;1.40;1.10;;;19.20;43.70;;;;;;5205301;28;20033;-75
2020/12/29 11:16:36;;;;;;;1.23;1.00;;;19.20;43.70;;;;;;5200643;28;20029;-76
2020/12/29 11:19:06;;;;;;;1.10;1.00;;;19.20;43.70;;;;;;5226285;28;20068;-75
2020/12/29 11:21:37;;;;;;;1.23;1.13;;;19.20;43.70;;;;;;5208569;28;20037;-76
2020/12/29 11:24:07;;;;;;;1.20;1.10;;;19.20;43.70;;;;;;5225835;28;20029;-76
2020/12/29 11:26:38;;;;;;;1.10;1.00;;;19.20;43.70;;;;;;5221452;28;20124;-75
2020/12/29 11:29:08;;;;;;;1.30;1.20;;;19.20;43.70;;;;;;5188603;28;20044;-76
2020/12/29 11:31:39;;;;;;;1.50;1.20;;;19.20;43.70;;;;;;5200097;28;20539;-76
2020/12/29 11:34:09;;;;;;;2.38;1.23;;;19.20;43.70;;;;;;5225654;28;20395;-76
2020/12/29 11:36:40;;;;;;;1.20;1.00;;;19.20;43.70;;;;;;5208454;28;20048;-77
2020/12/29 11:39:10;;;;;;;1.50;1.10;;;19.20;43.70;;;;;;5225699;28;20029;-76
2020/12/29 11:41:41;;;;;;;1.15;1.05;;;19.20;43.70;;;;;;5208116;28;20167;-76
2020/12/29 11:44:11;;;;;;;1.25;1.02;;;19.20;43.80;;;;;;5225522;28;20426;-76
2020/12/29 11:46:42;;;;;;;1.10;1.00;;;19.20;43.70;;;;;;5207808;28;20183;-76
2020/12/29 11:49:12;;;;;;;1.45;1.13;;;19.20;43.80;;;;;;5225318;28;20055;-76
2020/12/29 11:51:47;;;;;;;1.85;1.13;;;19.20;43.70;;;;;;5208343;28;20025;-77
2020/12/29 11:54:17;;;;;;;1.10;1.00;;;19.20;43.70;;;;;;5208693;28;20033;-75
2020/12/29 11:56:48;;;;;;;1.10;1.00;;;19.20;43.70;;;;;;5208295;28;20028;-76
2020/12/29 11:59:19;;;;;;;1.15;1.05;;;19.20;43.80;;;;;;5208729;28;20029;-76
2020/12/29 12:01:49;;;;;;;1.20;1.10;;;19.20;43.70;;;;;;5214601;28;20033;-76
2020/12/29 12:04:20;;;;;;;1.00;0.90;;;19.20;44.40;;;;;;5225239;28;20535;-76
2020/12/29 12:06:50;;;;;;;1.45;0.90;;;19.20;43.80;;;;;;5207731;28;20033;-77
2020/12/29 12:09:21;;;;;;;1.23;1.08;;;19.20;43.80;;;;;;5208561;28;20089;-76
2020/12/29 12:11:51;;;;;;;1.80;1.00;;;19.20;43.80;;;;;;5218337;28;20029;-76
2020/12/29 12:14:22;;;;;;;1.70;1.10;;;19.20;43.80;;;;;;5204324;28;20108;-76
2020/12/29 12:16:52;;;;;;;1.35;1.17;;;19.20;43.80;;;;;;5195860;28;20033;-76
2020/12/29 12:19:23;;;;;;;1.02;0.93;;;19.20;43.80;;;;;;5204390;28;20022;-76
2020/12/29 12:21:53;;;;;;;0.88;0.88;;;19.20;43.80;;;;;;5193344;28;20104;-76
2020/12/29 12:24:24;;;;;;;1.27;1.05;;;19.20;43.80;;;;;;5208233;28;20060;-76
2020/12/29 12:26:54;;;;;;;0.90;0.90;;;19.20;43.80;;;;;;5201507;28;20022;-76
2020/12/29 12:29:25;;;;;;;1.05;0.80;;;19.20;43.90;;;;;;5204372;28;20033;-76
2020/12/29 12:31:55;;;;;;;1.00;0.90;;;19.20;43.90;;;;;;5218263;28;20033;-76
2020/12/29 12:34:26;;;;;;;1.20;1.10;;;19.20;43.90;;;;;;5224771;28;20040;-76
2020/12/29 12:36:56;;;;;;;1.05;0.95;;;19.20;43.90;;;;;;5208277;28;20044;-76
2020/12/29 12:39:27;;;;;;;1.20;1.10;;;19.20;43.90;;;;;;5224239;28;20436;-76
2020/12/29 12:41:57;;;;;;;2.45;0.93;;;19.20;43.90;;;;;;5223575;28;20510;-76
2020/12/29 12:44:28;;;;;;;1.45;1.10;;;19.20;43.90;;;;;;5224332;28;20100;-76
2020/12/29 12:46:58;;;;;;;1.10;1.00;;;19.20;43.90;;;;;;5197928;28;20033;-76
2020/12/29 12:49:29;;;;;;;1.70;0.90;;;19.20;43.90;;;;;;5224221;28;20043;-76
2020/12/29 12:51:59;;;;;;;0.80;0.80;;;19.20;43.90;;;;;;5200113;28;20562;-77
2020/12/29 12:54:30;;;;;;;1.27;1.00;;;19.20;43.90;;;;;;5187046;28;20037;-76
2020/12/29 12:57:00;;;;;;;1.10;1.00;;;19.20;43.90;;;;;;5210397;28;20112;-76
2020/12/29 12:59:31;;;;;;;0.82;0.82;;;19.20;43.90;;;;;;5207561;28;20040;-76
2020/12/29 13:02:01;;;;;;;1.40;1.00;;;19.20;43.90;;;;;;5206224;28;20021;-76
2020/12/29 13:04:32;;;;;;;1.20;1.10;;;19.20;44.50;;;;;;5225229;28;20056;-77
2020/12/29 13:07:02;;;;;;;1.10;1.00;;;19.20;43.90;;;;;;5216438;28;20641;-76
2020/12/29 13:09:33;;;;;;;1.23;0.90;;;19.20;43.90;;;;;;5203496;28;20040;-76